Time;durP1;ratioP1;P1;durP2;ratioP2;P2;SDS_P1;SDS_P2;PMS_P1;PMS_P2;Temp;Humidity;BMP_temperature;BMP_pressure;BME280_temperature;BME280_humidity;BME280_pressure;Samples;Min_cycle;Max_cycle;Signal;HPM_P1;HPM_P2
2022/07/19 00:00:01;;;;;;;1.50;1.40;;;;;;;22.55;57.63;100133.44;5094292;28;20187;-75
2022/07/19 00:02:27;;;;;;;1.50;1.40;;;;;;;22.57;57.20;100133.16;5094122;28;20192;-75
2022/07/19 00:04:54;;;;;;;3.00;1.30;;;;;;;22.52;57.47;100136.66;5094904;28;20246;-75
2022/07/19 00:07:21;;;;;;;2.50;1.30;;;;;;;22.49;57.74;100142.56;5093881;28;20253;-76
2022/07/19 00:09:48;;;;;;;4.83;1.27;;;;;;;22.58;57.38;100134.81;5092965;28;20567;-76
2022/07/19 00:12:14;;;;;;;1.47;1.37;;;;;;;22.49;57.81;100142.56;5092816;28;20222;-75
2022/07/19 00:14:42;;;;;;;1.37;1.27;;;;;;;22.57;57.39;100144.81;5093175;28;20203;-76
2022/07/19 00:17:09;;;;;;;4.97;1.53;;;;;;;22.14;59.10;100138.69;5092998;28;20191;-76
2022/07/19 00:19:36;;;;;;;4.83;1.43;;;;;;;21.90;60.12;100132.75;5092255;28;20252;-75
2022/07/19 00:22:03;;;;;;;1.57;1.20;;;;;;;22.00;60.11;100138.28;5092869;28;20190;-76
2022/07/19 00:24:29;;;;;;;3.87;1.70;;;;;;;22.13;59.90;100132.44;5092060;28;20195;-76
2022/07/19 00:26:56;;;;;;;1.70;1.33;;;;;;;22.08;59.91;100135.13;5092144;28;20195;-76
2022/07/19 00:29:23;;;;;;;3.53;1.30;;;;;;;22.24;59.31;100131.50;5092517;28;20191;-76
2022/07/19 00:31:51;;;;;;;1.67;1.50;;;;;;;22.31;58.88;100134.81;5092106;28;20945;-76
2022/07/19 00:34:18;;;;;;;2.57;1.30;;;;;;;22.13;58.73;100137.06;5092074;28;20720;-76
2022/07/19 00:36:44;;;;;;;2.37;1.50;;;;;;;21.60;60.95;100132.34;5093130;28;20199;-76
2022/07/19 00:39:11;;;;;;;2.03;1.50;;;;;;;21.78;60.24;100134.78;5092344;28;20252;-76
2022/07/19 00:41:42;;;;;;;2.10;1.57;;;;;;;21.68;59.71;100131.13;5092549;28;20284;-75
2022/07/19 00:44:09;;;;;;;1.50;1.40;;;;;;;21.37;60.99;100138.03;5092140;28;20274;-76
2022/07/19 00:46:37;;;;;;;1.40;1.30;;;;;;;21.20;61.01;100129.16;5092225;28;20731;-75
2022/07/19 00:49:05;;;;;;;1.70;1.60;;;;;;;20.95;61.82;100127.97;5092548;28;20279;-76
2022/07/19 00:51:35;;;;;;;2.57;1.60;;;;;;;20.79;62.42;100129.59;5091499;28;20625;-76
2022/07/19 00:54:02;;;;;;;3.13;1.50;;;;;;;20.79;62.05;100107.97;5091608;28;20256;-77
2022/07/19 00:56:30;;;;;;;3.47;1.43;;;;;;;20.94;61.73;100127.13;5091603;28;20255;-78
2022/07/19 00:58:58;;;;;;;1.30;1.20;;;;;;;21.07;61.25;100126.78;5092094;28;20191;-77
2022/07/19 01:01:25;;;;;;;3.30;1.50;;;;;;;21.13;61.00;100123.09;5091380;28;20736;-76
2022/07/19 01:03:52;;;;;;;1.97;1.50;;;;;;;21.23;60.64;100130.53;5092088;28;20191;-76
2022/07/19 01:06:22;;;;;;;1.40;1.30;;;;;;;21.07;60.91;100107.84;5092355;28;20191;-77
2022/07/19 01:08:49;;;;;;;1.20;1.20;;;;;;;21.24;60.76;100132.16;5092148;28;20237;-76
2022/07/19 01:11:16;;;;;;;2.03;1.30;;;;;;;21.35;60.13;100126.63;5092400;28;20199;-76
2022/07/19 01:13:43;;;;;;;2.27;1.43;;;;;;;21.46;59.53;100131.09;5091574;28;20195;-76
2022/07/19 01:16:10;;;;;;;3.00;1.27;;;;;;;21.53;58.95;100120.94;5092240;28;20191;-76
2022/07/19 01:18:37;;;;;;;2.50;1.40;;;;;;;21.61;58.69;100112.38;5091503;28;20191;-76
2022/07/19 01:21:05;;;;;;;1.47;1.07;;;;;;;21.69;58.50;100124.63;5091880;28;20245;-76
2022/07/19 01:23:33;;;;;;;1.30;1.20;;;;;;;21.76;58.13;100120.69;5091378;28;20280;-76
2022/07/19 01:26:00;;;;;;;1.77;1.00;;;;;;;21.81;57.86;100111.81;5091322;28;20217;-76
2022/07/19 01:28:27;;;;;;;2.53;1.50;;;;;;;21.89;57.87;100119.47;5091822;28;20195;-76
2022/07/19 01:30:53;;;;;;;1.37;1.33;;;;;;;21.91;57.91;100118.16;5091088;28;20796;-76
2022/07/19 01:33:20;;;;;;;2.03;1.60;;;;;;;21.95;57.66;100111.16;5091097;28;20248;-76
2022/07/19 01:35:47;;;;;;;4.10;1.27;;;;;;;22.03;57.68;100110.72;5092238;28;20195;-76
2022/07/19 01:38:13;;;;;;;3.57;1.30;;;;;;;22.03;57.68;100110.72;5091933;28;20191;-76
2022/07/19 01:40:42;;;;;;;6.33;1.90;;;;;;;22.02;57.76;100114.50;5091839;28;20328;-76
2022/07/19 01:43:08;;;;;;;7.83;2.10;;;;;;;22.03;57.59;100113.41;5091593;28;20655;-76
2022/07/19 01:45:35;;;;;;;3.80;1.73;;;;;;;22.08;57.28;100118.88;5091894;28;20290;-76
2022/07/19 01:48:02;;;;;;;1.87;1.33;;;;;;;22.13;57.51;100118.91;5092048;28;20276;-76
2022/07/19 01:50:29;;;;;;;3.70;1.03;;;;;;;22.08;57.69;100112.63;5092039;28;20256;-76
2022/07/19 01:52:55;;;;;;;0.90;0.87;;;;;;;22.04;57.82;100120.47;5091803;28;20204;-75
2022/07/19 01:55:22;;;;;;;1.27;1.00;;;;;;;22.04;57.41;100122.34;5092149;28;20245;-76
2022/07/19 01:57:50;;;;;;;3.00;1.90;;;;;;;22.03;57.16;100121.53;5091751;28;20237;-75
2022/07/19 02:00:17;;;;;;;2.70;1.50;;;;;;;22.03;57.14;100118.81;5091873;28;20674;-76
2022/07/19 02:02:44;;;;;;;2.60;1.50;;;;;;;22.05;57.43;100130.19;5092102;28;20223;-75
2022/07/19 02:05:11;;;;;;;2.23;1.67;;;;;;;21.95;57.85;100130.09;5092074;28;20192;-75
2022/07/19 02:07:38;;;;;;;5.40;1.60;;;;;;;21.81;59.13;100131.56;5092263;28;20191;-75
2022/07/19 02:10:06;;;;;;;5.27;2.07;;;;;;;21.58;60.28;100133.69;5092016;28;20198;-74
2022/07/19 02:12:33;;;;;;;2.97;1.70;;;;;;;21.39;61.21;100133.16;5092002;28;20195;-75
2022/07/19 02:15:01;;;;;;;4.17;1.60;;;;;;;21.38;61.33;100139.66;5091843;28;20191;-75
2022/07/19 02:17:28;;;;;;;3.07;1.57;;;;;;;21.33;61.73;100123.38;5091468;28;20663;-74
2022/07/19 02:19:54;;;;;;;5.13;2.20;;;;;;;21.34;61.75;100132.28;5092064;28;20293;-75
2022/07/19 02:22:22;;;;;;;1.63;1.53;;;;;;;21.33;61.84;100134.19;5091548;28;20714;-75
2022/07/19 02:24:49;;;;;;;2.80;1.80;;;;;;;21.20;62.27;100137.25;5092182;28;20191;-76
2022/07/19 02:27:16;;;;;;;6.30;2.17;;;;;;;21.12;62.93;100132.28;5092019;28;20191;-75
2022/07/19 02:29:43;;;;;;;6.43;1.83;;;;;;;21.01;63.28;100132.34;5092588;28;20196;-75
2022/07/19 02:32:11;;;;;;;3.13;1.70;;;;;;;21.02;63.53;100131.31;5095936;28;20199;-75
2022/07/19 02:34:38;;;;;;;5.20;1.70;;;;;;;21.04;63.55;100132.69;5095734;28;20187;-74
2022/07/19 02:37:05;;;;;;;2.30;2.10;;;;;;;21.10;63.30;100137.09;5095736;28;20274;-75
2022/07/19 02:39:32;;;;;;;2.57;1.70;;;;;;;21.16;63.31;100136.13;5095440;28;20655;-74
2022/07/19 02:41:58;;;;;;;5.50;1.90;;;;;;;21.20;62.93;100136.41;5095592;28;20241;-73
2022/07/19 02:44:25;;;;;;;2.00;1.90;;;;;;;21.20;62.85;100137.25;5095338;28;20789;-74
2022/07/19 02:46:52;;;;;;;3.67;2.00;;;;;;;21.16;63.12;100136.13;5094978;28;20231;-73
2022/07/19 02:49:21;;;;;;;5.97;2.13;;;;;;;21.21;62.99;100136.19;5095054;28;20180;-74
2022/07/19 02:51:48;;;;;;;2.20;2.00;;;;;;;21.19;63.00;100138.28;5095129;28;20626;-74
2022/07/19 02:54:15;;;;;;;5.60;2.33;;;;;;;21.15;63.18;100133.66;5095381;28;20235;-73
2022/07/19 02:56:42;;;;;;;5.83;2.30;;;;;;;21.18;62.69;100133.13;5095039;28;20554;-73
2022/07/19 02:59:08;;;;;;;3.43;2.20;;;;;;;21.14;63.28;100132.81;5095240;28;20240;-74
2022/07/19 03:01:35;;;;;;;9.30;1.73;;;;;;;21.19;63.31;100135.59;5095797;28;20670;-73
2022/07/19 03:04:02;;;;;;;5.67;2.30;;;;;;;21.04;63.47;100138.09;5094762;28;20764;-74
2022/07/19 03:06:30;;;;;;;5.33;2.10;;;;;;;20.94;63.67;100146.03;5094898;28;20195;-75
2022/07/19 03:08:57;;;;;;;4.50;1.90;;;;;;;20.87;63.82;100145.38;5094455;28;20195;-75
2022/07/19 03:11:24;;;;;;;6.70;2.40;;;;;;;20.81;64.54;100140.94;5094504;28;20191;-75
2022/07/19 03:13:50;;;;;;;3.30;2.17;;;;;;;20.80;64.74;100147.41;5094271;28;20199;-75
2022/07/19 03:16:17;;;;;;;2.80;2.57;;;;;;;20.72;65.02;100145.13;5094385;28;20628;-75
2022/07/19 03:18:44;;;;;;;2.43;2.10;;;;;;;20.64;65.85;100150.94;5094305;28;20192;-76
2022/07/19 03:21:11;;;;;;;4.03;2.37;;;;;;;20.59;65.80;100148.16;5094441;28;20195;-76
2022/07/19 03:23:39;;;;;;;5.10;2.37;;;;;;;20.59;66.24;100151.66;5094685;28;20219;-76
2022/07/19 03:26:06;;;;;;;11.87;2.43;;;;;;;20.56;66.52;100151.34;5094183;28;20191;-75
2022/07/19 03:28:33;;;;;;;3.67;2.53;;;;;;;20.67;66.08;100152.31;5094522;28;20195;-74
2022/07/19 03:31:00;;;;;;;2.10;2.00;;;;;;;20.72;66.07;100150.53;5094499;28;20194;-75
2022/07/19 03:33:27;;;;;;;8.23;2.33;;;;;;;20.74;66.15;100151.09;5094415;28;20195;-73
2022/07/19 03:35:54;;;;;;;4.70;2.53;;;;;;;20.71;66.57;100148.91;5094530;28;20264;-74
2022/07/19 03:38:21;;;;;;;4.77;2.53;;;;;;;20.67;66.53;100151.25;5094598;28;20199;-74
2022/07/19 03:40:49;;;;;;;2.87;2.20;;;;;;;20.71;66.70;100156.16;5093798;28;20662;-74
2022/07/19 03:43:16;;;;;;;7.93;2.70;;;;;;;20.67;66.62;100153.16;5093935;28;20231;-74
2022/07/19 03:45:43;;;;;;;4.07;2.83;;;;;;;20.70;66.53;100147.25;5094108;28;20252;-75
2022/07/19 03:48:10;;;;;;;4.00;2.93;;;;;;;20.61;67.19;100148.72;5094579;28;20288;-75
2022/07/19 03:50:38;;;;;;;10.73;3.10;;;;;;;20.55;67.23;100152.41;5092912;28;20304;-76
2022/07/19 03:53:05;;;;;;;3.33;2.17;;;;;;;20.55;67.44;100155.91;5094502;28;20195;-75
2022/07/19 03:55:31;;;;;;;3.30;2.57;;;;;;;20.63;67.39;100154.69;5094079;28;20227;-74
2022/07/19 03:57:59;;;;;;;7.80;2.50;;;;;;;20.73;67.07;100162.13;5094000;28;20264;-75
2022/07/19 04:00:26;;;;;;;14.07;2.90;;;;;;;20.92;66.41;100156.28;5093076;28;20195;-74
2022/07/19 04:02:53;;;;;;;16.60;2.60;;;;;;;20.89;66.47;100162.13;5093906;28;20215;-74
2022/07/19 04:05:20;;;;;;;9.97;2.60;;;;;;;20.91;66.61;100162.75;5093651;28;20195;-74
2022/07/19 04:07:47;;;;;;;5.23;2.77;;;;;;;20.97;66.64;100159.06;5093482;28;20663;-74
2022/07/19 04:10:13;;;;;;;8.93;2.30;;;;;;;21.27;65.58;100164.09;5093261;28;20187;-75
2022/07/19 04:12:40;;;;;;;4.47;2.20;;;;;;;21.74;64.60;100159.88;5093798;28;20217;-75
2022/07/19 04:15:09;;;;;;;4.70;2.40;;;;;;;22.59;61.08;100169.78;5092837;28;20663;-76
2022/07/19 04:17:36;;;;;;;2.57;2.00;;;;;;;23.61;56.59;100162.88;5093795;28;20223;-76
2022/07/19 04:20:04;;;;;;;9.27;2.40;;;;;;;24.21;54.70;100171.28;5092548;28;20248;-76
2022/07/19 04:22:31;;;;;;;3.03;2.33;;;;;;;25.18;51.61;100172.97;5092891;28;20685;-76
2022/07/19 04:24:58;;;;;;;5.67;2.50;;;;;;;25.87;49.32;100171.13;5092983;28;20661;-76
2022/07/19 04:27:25;;;;;;;4.17;2.60;;;;;;;26.42;47.44;100179.03;5093001;28;20620;-75
2022/07/19 04:29:51;;;;;;;2.87;2.23;;;;;;;26.82;46.30;100176.84;5092712;28;20721;-74
2022/07/19 04:32:19;;;;;;;4.07;3.07;;;;;;;27.44;44.44;100181.47;5092962;28;20252;-74
2022/07/19 04:34:46;;;;;;;3.70;2.70;;;;;;;27.99;42.81;100184.38;5093564;28;20192;-74
2022/07/19 04:37:13;;;;;;;7.50;2.77;;;;;;;28.63;40.91;100191.97;5092615;28;20615;-73
2022/07/19 04:39:40;;;;;;;9.63;3.00;;;;;;;28.60;40.32;100196.13;5092803;28;20663;-74
2022/07/19 04:42:06;;;;;;;2.93;2.33;;;;;;;28.53;40.51;100186.63;5093333;28;20195;-75
2022/07/19 04:44:33;;;;;;;4.27;2.57;;;;;;;29.01;39.65;100188.09;5093314;28;20287;-74
2022/07/19 04:47:00;;;;;;;5.17;2.43;;;;;;;29.08;39.81;100196.72;5092661;28;20617;-75
2022/07/19 04:49:28;;;;;;;3.13;2.23;;;;;;;29.56;38.37;100192.53;5093060;28;20199;-74
2022/07/19 04:51:55;;;;;;;4.77;2.47;;;;;;;29.76;38.09;100191.38;5091833;28;20622;-74
2022/07/19 04:54:22;;;;;;;5.93;2.33;;;;;;;30.18;36.88;100189.13;5091549;28;20195;-73
2022/07/19 04:56:48;;;;;;;5.50;2.83;;;;;;;30.12;36.83;100187.56;5092082;28;20800;-74
2022/07/19 04:59:15;;;;;;;6.27;3.00;;;;;;;30.52;36.39;100189.41;5092408;28;20256;-74
2022/07/19 05:01:42;;;;;;;4.97;2.93;;;;;;;30.65;35.25;100194.03;5092176;28;20626;-73
2022/07/19 05:04:09;;;;;;;3.87;2.93;;;;;;;30.66;35.48;100192.91;5092048;28;20223;-74
2022/07/19 05:06:37;;;;;;;5.37;2.83;;;;;;;30.74;35.23;100197.69;5092349;28;20324;-73
2022/07/19 05:09:04;;;;;;;2.90;2.60;;;;;;;30.74;34.64;100194.94;5092275;28;20191;-73
2022/07/19 05:11:30;;;;;;;7.20;2.30;;;;;;;30.60;35.25;100194.16;5091739;28;20217;-74
2022/07/19 05:13:57;;;;;;;3.37;2.10;;;;;;;30.65;34.59;100188.53;5092366;28;20207;-74
2022/07/19 05:16:24;;;;;;;4.47;1.90;;;;;;;30.84;34.17;100197.44;5091855;28;20240;-73
2022/07/19 05:18:51;;;;;;;6.50;2.63;;;;;;;31.14;33.63;100193.91;5091711;28;20252;-74
2022/07/19 05:21:17;;;;;;;4.87;2.03;;;;;;;31.58;33.23;100185.63;5092082;28;20751;-74
2022/07/19 05:23:45;;;;;;;3.33;1.50;;;;;;;31.87;33.03;100194.16;5091600;28;20227;-74
2022/07/19 05:26:12;;;;;;;4.57;2.13;;;;;;;32.25;32.17;100200.69;5091610;28;20187;-73
2022/07/19 05:28:39;;;;;;;3.13;1.87;;;;;;;32.00;32.62;100198.72;5091781;28;20199;-75
2022/07/19 05:31:06;;;;;;;5.10;1.73;;;;;;;32.29;31.91;100196.19;5092065;28;20199;-73
2022/07/19 05:33:32;;;;;;;3.80;2.13;;;;;;;32.99;30.75;100199.44;5106926;28;20202;-72
2022/07/19 05:35:59;;;;;;;3.43;1.70;;;;;;;33.29;30.35;100195.66;5112459;28;20191;-72
2022/07/19 05:38:26;;;;;;;5.43;1.60;;;;;;;33.61;29.67;100204.47;5111961;28;20681;-73
2022/07/19 05:40:54;;;;;;;2.00;1.60;;;;;;;33.30;29.53;100193.69;5112263;28;20278;-73
2022/07/19 05:43:21;;;;;;;7.33;1.70;;;;;;;33.72;29.17;100201.03;5111747;28;20584;-73
2022/07/19 05:45:48;;;;;;;3.73;1.50;;;;;;;33.87;28.96;100196.91;5111745;28;20244;-71
2022/07/19 05:48:14;;;;;;;2.47;1.53;;;;;;;33.75;29.31;100210.56;5112144;28;20227;-74
2022/07/19 05:50:41;;;;;;;1.57;1.37;;;;;;;33.65;29.31;100210.94;5111370;28;20654;-75
2022/07/19 05:53:08;;;;;;;5.83;2.53;;;;;;;33.40;29.51;100198.09;5111225;28;20266;-73
2022/07/19 05:55:35;;;;;;;2.33;1.90;;;;;;;33.36;29.89;100199.88;5111494;28;20194;-72
2022/07/19 05:58:03;;;;;;;2.23;1.83;;;;;;;33.25;29.99;100208.47;5103704;28;20610;-78
2022/07/19 06:00:30;;;;;;;3.03;1.77;;;;;;;33.09;30.27;100203.81;5112183;28;20232;-77
2022/07/19 06:02:56;;;;;;;3.03;1.80;;;;;;;33.07;30.18;100201.38;5110296;28;20194;-76
2022/07/19 06:05:23;;;;;;;7.70;1.80;;;;;;;33.34;29.90;100197.44;5115503;28;20183;-75
2022/07/19 06:07:50;;;;;;;7.47;2.50;;;;;;;33.40;30.05;100206.34;5116152;28;20194;-75
2022/07/19 06:10:17;;;;;;;10.83;2.30;;;;;;;33.42;30.01;100201.31;5115936;28;20615;-74
2022/07/19 06:12:43;;;;;;;2.87;1.63;;;;;;;33.74;29.48;100209.78;5116020;28;20212;-76
2022/07/19 06:15:12;;;;;;;10.67;2.67;;;;;;;33.82;29.11;100205.38;5115780;28;20198;-79
2022/07/19 06:17:39;;;;;;;6.23;1.80;;;;;;;33.94;29.14;100200.78;5116064;28;20276;-76
2022/07/19 06:20:06;;;;;;;4.70;1.70;;;;;;;33.94;28.96;100197.22;5113594;28;20239;-77
2022/07/19 06:22:33;;;;;;;11.60;1.70;;;;;;;33.55;29.41;100205.81;5116450;28;20198;-78
2022/07/19 06:25:00;;;;;;;2.63;1.80;;;;;;;33.44;29.71;100197.09;5115859;28;20214;-75
2022/07/19 06:27:27;;;;;;;1.90;1.67;;;;;;;33.44;29.66;100199.03;5115956;28;20191;-78
2022/07/19 06:29:54;;;;;;;3.27;1.40;;;;;;;33.72;29.48;100198.25;5116863;28;20203;-77
2022/07/19 06:32:22;;;;;;;7.00;2.10;;;;;;;33.88;29.08;100193.84;5116889;28;20217;-77
2022/07/19 06:34:49;;;;;;;4.85;1.77;;;;;;;33.40;29.85;100195.31;5116478;28;20198;-78
2022/07/19 06:37:15;;;;;;;5.67;1.73;;;;;;;32.83;30.69;100192.03;5116330;28;20194;-77
2022/07/19 06:39:42;;;;;;;6.37;2.00;;;;;;;33.08;30.44;100197.47;5115680;28;20662;-77
2022/07/19 06:42:09;;;;;;;3.70;2.20;;;;;;;33.13;30.15;100200.09;5115762;28;20194;-77
2022/07/19 06:44:35;;;;;;;4.07;2.10;;;;;;;33.08;30.17;100197.47;5114616;28;20218;-73
2022/07/19 06:47:03;;;;;;;5.90;2.33;;;;;;;33.28;30.08;100193.25;5114945;28;20317;-72
2022/07/19 06:49:31;;;;;;;2.43;1.97;;;;;;;33.58;29.81;100183.91;5111884;28;20201;-73
2022/07/19 06:51:57;;;;;;;8.23;2.30;;;;;;;33.45;30.12;100189.63;5113284;28;20187;-73
2022/07/19 06:54:24;;;;;;;6.83;2.00;;;;;;;32.95;30.92;100178.41;5113147;28;20285;-75
2022/07/19 06:56:51;;;;;;;5.67;2.10;;;;;;;33.26;30.47;100181.72;5110558;28;20813;-74
2022/07/19 06:59:18;;;;;;;4.00;1.93;;;;;;;33.75;29.74;100183.00;5110351;28;20982;-72
2022/07/19 07:01:45;;;;;;;8.57;2.58;;;;;;;33.83;29.58;100179.41;5111247;28;20723;-71
2022/07/19 07:04:11;;;;;;;3.55;2.28;;;;;;;34.00;29.25;100184.88;5108855;28;20275;-74
2022/07/19 07:06:40;;;;;;;6.88;2.60;;;;;;;33.69;29.35;100178.81;5111640;28;20198;-73
2022/07/19 07:09:06;;;;;;;4.57;2.00;;;;;;;33.85;29.19;100172.47;5111332;28;20626;-71
2022/07/19 07:11:33;;;;;;;7.93;1.60;;;;;;;34.20;28.72;100178.53;5111097;28;20199;-74
2022/07/19 07:14:00;;;;;;;4.40;1.70;;;;;;;33.88;28.76;100173.75;5113467;28;20199;-72
2022/07/19 07:16:27;;;;;;;7.25;2.15;;;;;;;34.00;29.34;100166.34;5113093;28;20593;-68
2022/07/19 07:18:53;;;;;;;3.88;2.33;;;;;;;33.70;29.42;100174.94;5114383;28;20255;-71
2022/07/19 07:21:20;;;;;;;6.57;1.95;;;;;;;33.80;29.42;100174.56;5115008;28;20191;-70
2022/07/19 07:23:48;;;;;;;5.45;1.75;;;;;;;34.04;29.15;100172.81;5114768;27;20694;-71
2022/07/19 07:26:15;;;;;;;2.80;1.90;;;;;;;34.19;28.75;100163.13;5115234;28;20262;-71
2022/07/19 07:28:42;;;;;;;2.05;1.50;;;;;;;34.51;27.76;100173.47;5115129;28;20203;-70
2022/07/19 07:31:09;;;;;;;2.53;1.60;;;;;;;34.09;28.26;100169.06;5114835;28;20195;-71
2022/07/19 07:33:35;;;;;;;4.45;1.70;;;;;;;33.30;29.17;100172.47;5114897;28;20722;-71
2022/07/19 07:36:02;;;;;;;2.67;1.65;;;;;;;33.42;29.21;100168.25;5114724;28;20191;-71
2022/07/19 07:38:29;;;;;;;3.90;1.73;;;;;;;31.80;31.03;100158.06;5114863;28;20198;-72
2022/07/19 07:40:57;;;;;;;4.63;2.10;;;;;;;32.08;30.32;100162.19;5114832;28;20677;-73
2022/07/19 07:43:24;;;;;;;4.53;2.10;;;;;;;32.89;29.39;100164.00;5115389;28;20251;-72
2022/07/19 07:45:51;;;;;;;2.57;1.67;;;;;;;33.21;28.64;100160.69;5114625;28;20255;-72
2022/07/19 07:48:17;;;;;;;6.07;1.90;;;;;;;33.66;27.88;100163.75;5114605;28;20287;-72
2022/07/19 07:50:44;;;;;;;5.70;1.60;;;;;;;33.79;26.34;100162.72;5114720;28;20721;-71
2022/07/19 07:53:11;;;;;;;3.72;2.00;;;;;;;33.87;27.74;100161.06;5114247;28;20198;-72
2022/07/19 07:55:39;;;;;;;4.78;1.23;;;;;;;33.77;27.56;100159.50;5114166;28;20686;-71
2022/07/19 07:58:08;;;;;;;2.03;1.40;;;;;;;34.22;26.63;100151.44;5114193;28;20222;-72
2022/07/19 08:00:35;;;;;;;12.27;2.35;;;;;;;34.42;25.64;100151.44;5114078;28;20190;-71
2022/07/19 08:03:02;;;;;;;4.95;1.65;;;;;;;34.78;25.54;100154.38;5114692;28;20273;-72
2022/07/19 08:05:29;;;;;;;2.78;1.60;;;;;;;35.13;24.59;100146.56;5113916;28;20770;-72
2022/07/19 08:07:56;;;;;;;2.15;1.20;;;;;;;35.17;24.37;100151.06;5114090;28;20678;-71
2022/07/19 08:10:24;;;;;;;6.70;1.48;;;;;;;35.02;23.07;100113.03;5113828;28;20194;-71
2022/07/19 08:12:51;;;;;;;4.20;1.35;;;;;;;35.06;23.49;100154.59;5113991;28;20751;-71
2022/07/19 08:15:19;;;;;;;1.38;1.08;;;;;;;34.41;23.60;100144.31;5114041;28;20602;-71
2022/07/19 08:17:46;;;;;;;1.48;1.10;;;;;;;34.72;23.50;100149.41;5114112;28;20216;-71
2022/07/19 08:20:13;;;;;;;7.32;1.20;;;;;;;35.00;23.44;100147.69;5114182;28;20194;-71
2022/07/19 08:22:39;;;;;;;2.38;1.48;;;;;;;35.16;22.76;100138.41;5114422;28;20187;-71
2022/07/19 08:25:07;;;;;;;1.33;1.23;;;;;;;34.40;23.33;100134.44;5113805;28;20635;-71
2022/07/19 08:27:34;;;;;;;3.40;1.40;;;;;;;34.41;23.86;100127.75;5112555;28;20624;-71
2022/07/19 08:30:01;;;;;;;1.08;1.08;;;;;;;34.71;22.83;100128.47;5113554;28;20247;-71
2022/07/19 08:32:29;;;;;;;8.63;1.75;;;;;;;34.97;22.61;100124.31;5114115;28;20251;-71
2022/07/19 08:34:56;;;;;;;2.33;1.92;;;;;;;35.10;22.04;100136.19;5114004;28;20191;-71
2022/07/19 08:37:23;;;;;;;2.40;1.13;;;;;;;35.21;22.05;100131.84;5113581;28;20626;-71
2022/07/19 08:39:49;;;;;;;34.20;3.88;;;;;;;35.16;21.52;100129.31;5113522;28;20244;-71
2022/07/19 08:42:19;;;;;;;6.22;1.23;;;;;;;34.93;21.75;100123.38;5113629;28;20186;-71
2022/07/19 08:44:48;;;;;;;2.35;1.25;;;;;;;34.82;21.48;100124.19;5113976;28;20203;-72
2022/07/19 08:47:15;;;;;;;3.30;1.40;;;;;;;35.07;20.39;100120.31;5113595;28;20306;-73
2022/07/19 08:49:44;;;;;;;1.33;1.23;;;;;;;34.98;19.93;100114.09;5113163;28;20194;-69
2022/07/19 08:52:11;;;;;;;1.45;1.00;;;;;;;34.51;20.71;100101.72;5113876;28;20190;-70
2022/07/19 08:54:38;;;;;;;2.55;1.50;;;;;;;34.23;21.48;100101.44;5111824;28;20255;-69
2022/07/19 08:59:50;;;;;;;2.95;1.48;;;;;;;34.25;21.15;100117.66;5112644;28;20297;-70
2022/07/19 09:02:17;;;;;;;1.25;1.15;;;;;;;34.43;20.98;100108.13;5110508;28;20275;-70
2022/07/19 09:05:00;;;;;;;2.78;1.30;;;;;;;34.57;20.90;100106.69;5111003;28;20313;-74
2022/07/19 09:07:27;;;;;;;4.82;1.40;;;;;;;34.43;21.77;100102.59;5111395;28;20182;-70
2022/07/19 09:10:13;;;;;;;7.28;1.92;;;;;;;34.53;20.70;100099.44;5110716;28;20256;-71
2022/07/19 09:12:58;;;;;;;1.42;1.17;;;;;;;34.37;21.17;100095.69;5108412;28;20194;-71
2022/07/19 09:15:40;;;;;;;2.10;1.20;;;;;;;34.23;21.54;100090.41;5108235;28;20190;-68
2022/07/19 09:18:09;;;;;;;3.70;1.13;;;;;;;34.05;21.62;100093.66;5106484;28;20179;-71
2022/07/19 09:20:37;;;;;;;2.55;1.30;;;;;;;33.94;21.44;100089.66;5109497;28;20202;-70
2022/07/19 09:23:05;;;;;;;3.60;1.38;;;;;;;32.68;22.29;100094.25;5108211;28;20201;-69
2022/07/19 09:25:40;;;;;;;3.30;1.47;;;;;;;33.19;22.82;100088.59;5109815;28;20222;-70
2022/07/19 09:28:07;;;;;;;2.92;2.60;;;;;;;33.67;22.04;100081.91;5110716;28;20649;-71
2022/07/19 09:30:37;;;;;;;1.40;1.30;;;;;;;33.97;22.21;100080.72;5110522;28;20199;-71
2022/07/19 09:33:16;;;;;;;1.30;1.30;;;;;;;34.02;21.41;100083.28;5110598;28;20281;-71
2022/07/19 09:35:46;;;;;;;4.22;1.70;;;;;;;34.29;20.95;100082.75;5110133;28;20190;-71
2022/07/19 09:38:22;;;;;;;3.10;1.20;;;;;;;33.45;22.03;100084.94;5110219;28;20235;-72
2022/07/19 09:40:50;;;;;;;2.97;1.48;;;;;;;33.55;22.17;100081.81;5109555;28;20186;-69
2022/07/19 09:43:18;;;;;;;1.77;1.15;;;;;;;33.81;22.04;100091.53;5110457;28;20251;-70
2022/07/19 09:45:46;;;;;;;2.17;1.67;;;;;;;33.33;22.65;100078.16;5110771;28;20218;-69
2022/07/19 09:48:13;;;;;;;1.30;1.20;;;;;;;33.35;22.50;100085.31;5109616;28;20226;-71
2022/07/19 09:50:44;;;;;;;1.52;1.40;;;;;;;33.40;22.77;100082.38;5110757;28;20474;-67
2022/07/19 09:53:11;;;;;;;6.38;1.27;;;;;;;33.37;22.75;100085.78;5111020;28;20187;-68
2022/07/19 09:55:38;;;;;;;1.42;1.42;;;;;;;33.46;23.05;100076.31;5110700;28;20661;-70
2022/07/19 09:58:06;;;;;;;2.60;1.23;;;;;;;33.87;22.40;100076.41;5110222;28;20263;-69
2022/07/19 10:00:33;;;;;;;4.57;1.20;;;;;;;33.83;22.36;100077.41;5111017;28;20191;-66
2022/07/19 10:03:01;;;;;;;1.65;1.13;;;;;;;33.95;21.77;100072.78;5111090;28;20259;-67
2022/07/19 10:05:30;;;;;;;1.00;1.00;;;;;;;33.74;22.30;100071.13;5109817;28;20715;-67
2022/07/19 10:07:59;;;;;;;5.10;1.40;;;;;;;33.87;22.06;100076.41;5112313;28;20277;-67
2022/07/19 10:10:30;;;;;;;2.28;1.02;;;;;;;34.20;21.97;100071.75;5111709;28;20190;-68
2022/07/19 10:12:58;;;;;;;3.72;1.15;;;;;;;34.18;21.71;100076.00;5110131;28;20239;-68
2022/07/19 10:15:26;;;;;;;1.35;1.23;;;;;;;33.63;22.66;100067.94;5111022;28;20255;-66
2022/07/19 10:18:05;;;;;;;2.60;1.17;;;;;;;32.81;23.58;100068.50;5111407;28;20224;-66
2022/07/19 10:20:33;;;;;;;2.25;1.10;;;;;;;33.06;22.90;100073.09;5111296;28;20273;-66
2022/07/19 10:23:03;;;;;;;1.17;1.10;;;;;;;33.18;22.37;100053.09;5112022;28;20219;-66
2022/07/19 10:25:41;;;;;;;6.65;1.60;;;;;;;32.90;23.51;100046.41;5112115;28;20255;-67
2022/07/19 10:28:34;;;;;;;2.28;1.30;;;;;;;33.06;22.84;100056.56;5110291;28;20246;-66
2022/07/19 10:31:01;;;;;;;1.50;1.40;;;;;;;33.00;23.40;100057.09;5112027;28;20247;-65
2022/07/19 10:33:30;;;;;;;1.63;1.30;;;;;;;32.70;23.80;100039.66;5111424;28;20195;-67
2022/07/19 10:35:57;;;;;;;4.50;1.13;;;;;;;32.86;22.96;100034.44;5110726;28;20612;-66
2022/07/19 10:38:25;;;;;;;1.00;0.97;;;;;;;33.05;23.19;100041.19;5110314;28;20727;-66
2022/07/19 10:40:56;;;;;;;4.40;1.23;;;;;;;33.09;23.38;100028.38;5111455;28;20191;-64
2022/07/19 10:43:24;;;;;;;1.20;1.10;;;;;;;32.94;23.04;100026.16;5111637;28;20182;-65
2022/07/19 10:46:10;;;;;;;3.42;1.38;;;;;;;32.56;23.18;100036.31;5111758;28;20257;-65
2022/07/19 10:48:38;;;;;;;1.23;1.10;;;;;;;32.17;23.76;100025.50;5111198;28;20686;-65
2022/07/19 10:51:06;;;;;;;1.40;1.30;;;;;;;32.50;23.33;100029.34;5112243;28;20743;-65
2022/07/19 10:54:02;;;;;;;1.80;1.30;;;;;;;32.81;23.53;100023.63;5115514;28;20256;-65
2022/07/19 10:56:47;;;;;;;5.30;1.37;;;;;;;33.01;23.39;100025.66;5115560;28;20191;-64
2022/07/19 10:59:14;;;;;;;4.90;1.52;;;;;;;33.08;23.66;100023.97;5115204;28;20187;-64
2022/07/19 11:01:56;;;;;;;3.07;1.40;;;;;;;32.71;23.77;100016.50;5115001;28;20190;-64
2022/07/19 11:04:25;;;;;;;1.13;1.03;;;;;;;32.87;23.54;100005.81;5114994;28;20269;-64
2022/07/19 11:07:10;;;;;;;7.67;1.73;;;;;;;33.09;23.38;100009.09;5114810;28;20619;-65
2022/07/19 11:09:46;;;;;;;3.50;1.60;;;;;;;32.57;24.13;100013.16;5115007;28;20274;-65
2022/07/19 11:12:24;;;;;;;1.87;1.40;;;;;;;32.48;23.71;99998.63;5115460;28;20191;-63
2022/07/19 11:14:50;;;;;;;4.67;1.57;;;;;;;32.57;23.80;99993.91;5114816;28;20715;-65
2022/07/19 11:17:17;;;;;;;3.92;1.10;;;;;;;32.56;23.83;99991.47;5114790;28;20613;-64
2022/07/19 11:19:58;;;;;;;3.70;0.93;;;;;;;32.34;23.94;99995.25;5115252;28;20277;-65
2022/07/19 11:22:25;;;;;;;1.53;1.20;;;;;;;32.42;24.19;99994.41;5114853;27;20299;-64
2022/07/19 11:24:53;;;;;;;1.73;1.63;;;;;;;32.51;24.03;99994.41;5114725;28;20215;-64
2022/07/19 11:27:20;;;;;;;1.10;1.10;;;;;;;32.71;23.75;99986.22;5115209;28;20616;-64
2022/07/19 11:30:05;;;;;;;1.20;1.20;;;;;;;32.78;23.69;99986.53;5114658;28;20252;-64